Time;durP1;ratioP1;P1;durP2;ratioP2;P2;SDS_P1;SDS_P2;PMS_P1;PMS_P2;Temp;Humidity;BMP_temperature;BMP_pressure;BME280_temperature;BME280_humidity;BME280_pressure;Samples;Min_cycle;Max_cycle;Signal;HPM_P1;HPM_P2
2022/07/07 00:01:46;;;;;;;12.43;8.85;;;;;;;;;;5075050;28;20481;-80
2022/07/07 00:04:12;;;;;;;15.77;9.60;;;;;;;;;;5091857;28;20398;-80
2022/07/07 00:06:38;;;;;;;16.00;10.50;;;;;;;;;;5075090;28;20532;-80
2022/07/07 00:09:05;;;;;;;16.15;10.25;;;;;;;;;;5075004;28;20402;-80
2022/07/07 00:11:31;;;;;;;13.73;10.73;;;;;;;;;;5125945;27;20401;-81
2022/07/07 00:13:58;;;;;;;21.65;10.68;;;;;;;;;;5074831;28;20413;-81
2022/07/07 00:16:24;;;;;;;15.38;10.48;;;;;;;;;;5091605;28;20440;-80
2022/07/07 00:18:50;;;;;;;17.15;11.25;;;;;;;;;;5091472;28;20418;-81
2022/07/07 00:21:16;;;;;;;15.77;11.13;;;;;;;;;;5091785;28;20398;-81
2022/07/07 00:23:42;;;;;;;17.08;11.25;;;;;;;;;;5091377;28;20430;-81
2022/07/07 00:26:08;;;;;;;16.95;11.65;;;;;;;;;;5074647;28;20394;-81
2022/07/07 00:28:35;;;;;;;17.98;11.38;;;;;;;;;;5091358;28;20800;-78
2022/07/07 00:31:01;;;;;;;20.05;11.10;;;;;;;;;;5074272;28;20400;-77
2022/07/07 00:33:28;;;;;;;15.83;10.00;;;;;;;;;;5074485;28;20485;-77
2022/07/07 00:35:54;;;;;;;18.30;10.40;;;;;;;;;;5092624;28;20430;-77
2022/07/07 00:38:20;;;;;;;16.58;9.55;;;;;;;;;;5074195;28;20916;-77
2022/07/07 00:40:53;;;;;;;15.10;8.57;;;;;;;;;;5091980;28;20398;-77
2022/07/07 00:43:19;;;;;;;15.88;8.85;;;;;;;;;;5092416;28;20394;-80
2022/07/07 00:45:47;;;;;;;14.82;8.35;;;;;;;;;;5090942;28;20425;-80
2022/07/07 00:48:13;;;;;;;17.17;8.15;;;;;;;;;;5092344;28;20456;-80
2022/07/07 00:50:39;;;;;;;10.50;7.13;;;;;;;;;;5090904;28;20501;-80
2022/07/07 00:53:06;;;;;;;12.50;5.95;;;;;;;;;;5074146;28;20402;-79
2022/07/07 00:55:32;;;;;;;11.68;5.25;;;;;;;;;;5091235;28;20502;-79
2022/07/07 00:57:58;;;;;;;11.95;5.90;;;;;;;;;;5090904;28;20408;-79
2022/07/07 01:00:24;;;;;;;10.88;5.90;;;;;;;;;;5090805;28;20881;-79
2022/07/07 01:02:50;;;;;;;9.05;6.68;;;;;;;;;;5073993;28;20393;-79
2022/07/07 01:05:17;;;;;;;16.98;7.57;;;;;;;;;;5090847;28;20413;-77
2022/07/07 01:07:43;;;;;;;13.07;7.32;;;;;;;;;;5073821;28;20398;-78
2022/07/07 01:10:09;;;;;;;15.10;7.15;;;;;;;;;;5074092;28;20754;-77
2022/07/07 01:12:37;;;;;;;12.38;7.10;;;;;;;;;;5073869;28;20409;-78
2022/07/07 01:15:04;;;;;;;13.07;6.80;;;;;;;;;;5090716;28;20409;-78
2022/07/07 01:17:30;;;;;;;12.27;7.13;;;;;;;;;;5073682;28;20462;-77
2022/07/07 01:19:56;;;;;;;14.55;7.70;;;15.90;99.90;;;;;;5073725;28;20482;-78
2022/07/07 01:22:24;;;;;;;13.90;7.28;;;;;;;;;;5057027;28;20918;-78
2022/07/07 01:24:50;;;;;;;13.90;8.45;;;;;;;;;;5090447;28;20431;-78
2022/07/07 01:27:17;;;;;;;15.02;8.05;;;;;;;;;;5073721;28;20511;-78
2022/07/07 01:29:49;;;;;;;19.88;8.40;;;15.80;99.90;;;;;;5073513;28;20397;-78
2022/07/07 01:32:15;;;;;;;15.38;8.80;;;;;;;;;;5124684;27;20406;-78
2022/07/07 01:34:46;;;;;;;13.88;8.65;;;;;;;;;;5090464;28;20398;-78
2022/07/07 01:37:12;;;;;;;17.10;8.57;;;;;;;;;;5073244;28;20416;-77
2022/07/07 01:39:39;;;;;;;15.32;9.40;;;16.00;99.90;;;;;;5073291;28;20422;-78
2022/07/07 01:42:06;;;;;;;15.53;9.00;;;;;;;;;;5096296;28;20463;-77
2022/07/07 01:44:33;;;;;;;14.30;8.68;;;15.80;99.90;;;;;;5080282;28;20414;-78
2022/07/07 01:46:59;;;;;;;20.65;10.02;;;;;;;;;;5131141;27;20905;-78
2022/07/07 01:49:25;;;;;;;16.03;8.87;;;;;;;;;;5097161;28;20409;-78
2022/07/07 01:51:51;;;;;;;16.13;9.25;;;;;;;;;;5097093;28;20402;-78
2022/07/07 01:54:17;;;;;;;16.60;9.65;;;;;;;;;;5096885;28;20490;-78
2022/07/07 01:56:45;;;;;;;16.42;9.35;;;;;;;;;;5080047;28;20409;-78
2022/07/07 01:59:12;;;;;;;18.20;9.70;;;;;;;;;;5131010;27;20433;-77
2022/07/07 02:01:38;;;;;;;16.48;9.90;;;;;;;;;;5080255;28;20394;-77
2022/07/07 02:04:04;;;;;;;16.40;8.95;;;;;;;;;;5097173;28;20451;-77
2022/07/07 02:06:30;;;;;;;17.53;9.17;;;;;;;;;;5080159;28;20528;-77
2022/07/07 02:08:56;;;;;;;14.52;8.40;;;;;;;;;;5097015;28;20397;-77
2022/07/07 02:11:22;;;;;;;15.77;9.20;;;;;;;;;;5096939;28;20486;-77
2022/07/07 02:13:50;;;;;;;21.48;9.05;;;15.90;99.90;;;;;;5096700;28;20446;-77
2022/07/07 02:16:18;;;;;;;19.73;8.33;;;16.10;99.90;;;;;;5113667;28;20398;-80
2022/07/07 02:18:45;;;;;;;17.77;9.13;;;;;;;;;;5130776;27;20421;-80
2022/07/07 02:21:13;;;;;;;17.33;8.38;;;16.20;99.90;;;;;;5130810;27;20408;-80
2022/07/07 02:23:43;;;;;;;19.48;8.07;;;16.10;99.90;;;;;;5130748;27;20405;-80
2022/07/07 02:26:09;;;;;;;14.45;6.70;;;;;;;;;;5130748;27;20401;-80
2022/07/07 02:28:35;;;;;;;14.38;6.47;;;16.10;99.90;;;;;;5096641;28;20402;-80
2022/07/07 02:31:01;;;;;;;15.57;6.25;;;;;;;;;;5079847;28;20458;-80
2022/07/07 02:33:27;;;;;;;16.73;6.35;;;;;;;;;;5097008;28;20405;-80
2022/07/07 02:35:53;;;;;;;15.80;6.20;;;;;;;;;;5079634;28;20398;-80
2022/07/07 02:38:20;;;;;;;17.35;6.10;;;15.90;99.90;;;;;;5096444;28;20430;-80
2022/07/07 02:40:46;;;;;;;15.45;5.80;;;;;;;;;;5114106;27;20393;-80
2022/07/07 02:43:15;;;;;;;13.00;5.33;;;;;;;;;;5096471;28;20398;-80
2022/07/07 02:45:46;;;;;;;13.95;5.93;;;15.90;99.90;;;;;;5079592;28;20928;-80
2022/07/07 02:48:14;;;;;;;14.40;5.50;;;16.00;99.90;;;;;;5113711;28;20402;-80
2022/07/07 02:50:40;;;;;;;14.23;4.95;;;;;;;;;;5096312;28;20915;-80
2022/07/07 02:53:07;;;;;;;14.15;4.63;;;;;;;;;;5076415;28;20983;-80
2022/07/07 02:55:33;;;;;;;13.68;4.20;;;;;;;;;;5076701;28;20965;-80
2022/07/07 02:58:00;;;;;;;14.00;4.18;;;15.90;99.90;;;;;;5076548;28;20394;-80
2022/07/07 03:00:27;;;;;;;15.10;4.60;;;16.00;99.90;;;;;;5093288;28;20394;-80
2022/07/07 03:02:54;;;;;;;9.48;3.88;;;;;;;;;;5127244;27;20394;-80
2022/07/07 03:05:21;;;;;;;14.75;4.50;;;16.00;99.90;;;;;;5092818;28;20811;-80
2022/07/07 03:07:47;;;;;;;11.13;3.85;;;;;;;;;;5127151;27;20417;-80
2022/07/07 03:10:13;;;;;;;16.40;4.00;;;;;;;;;;5127085;27;20409;-80
2022/07/07 03:12:39;;;;;;;15.57;4.60;;;15.90;99.90;;;;;;5076283;28;20968;-80
2022/07/07 03:15:06;;;;;;;9.27;3.73;;;;;;;;;;5092896;28;20488;-80
2022/07/07 03:17:32;;;;;;;14.90;4.43;;;;;;;;;;5093174;28;20401;-80
2022/07/07 03:19:57;;;;;;;12.17;4.40;;;15.80;99.90;;;;;;5075703;28;20933;-80
2022/07/07 03:22:23;;;;;;;14.40;4.43;;;16.00;99.90;;;;;;5126967;27;20500;-80
2022/07/07 03:24:49;;;;;;;16.40;4.50;;;15.90;99.90;;;;;;5126954;27;20813;-80
2022/07/07 03:27:15;;;;;;;15.93;5.32;;;;;;;;;;5126906;27;20397;-81
2022/07/07 03:29:41;;;;;;;19.30;5.60;;;;;;;;;;5092510;28;20398;-81
2022/07/07 03:32:07;;;;;;;15.13;5.43;;;;;;;;;;5092512;28;20431;-80
2022/07/07 03:34:33;;;;;;;12.07;4.63;;;;;;;;;;5075968;28;20420;-80
2022/07/07 03:36:59;;;;;;;15.00;4.13;;;;;;;;;;5075835;28;20566;-80
2022/07/07 03:39:25;;;;;;;13.90;4.28;;;;;;;;;;5093006;28;20937;-80
2022/07/07 03:41:51;;;;;;;12.63;3.57;;;;;;;;;;5092140;28;20401;-80
2022/07/07 03:44:17;;;;;;;14.40;4.10;;;;;;;;;;5092266;28;20402;-79
2022/07/07 03:46:44;;;;;;;11.90;3.47;;;;;;;;;;5092422;28;20834;-80
2022/07/07 03:49:10;;;;;;;15.10;3.42;;;15.70;99.90;;;;;;5126365;27;20394;-79
2022/07/07 03:51:36;;;;;;;15.10;3.40;;;;;;;;;;5075548;28;20738;-80
2022/07/07 03:54:02;;;;;;;18.83;3.67;;;;;;;;;;5092028;28;20481;-80
2022/07/07 03:56:28;;;;;;;13.00;2.80;;;;;;;;;;5092335;28;20472;-80
2022/07/07 03:58:54;;;;;;;6.15;1.80;;;;;;;;;;5091865;28;20464;-80
2022/07/07 04:01:21;;;;;;;11.88;2.22;;;;;;;;;;5091899;28;20402;-80
2022/07/07 04:03:46;;;;;;;8.07;2.20;;;14.70;99.90;;;;;;5090968;28;20448;-80
2022/07/07 04:06:12;;;;;;;7.28;2.00;;;14.70;99.90;;;;;;5075051;28;20402;-80
2022/07/07 04:08:39;;;;;;;8.73;2.10;;;;;;;;;;5125843;27;20890;-80
2022/07/07 04:11:05;;;;;;;9.85;2.10;;;;;;;;;;5125910;27;20405;-80
2022/07/07 04:13:31;;;;;;;8.70;2.47;;;;;;;;;;5075695;28;20409;-79
2022/07/07 04:15:57;;;;;;;9.45;2.50;;;;;;;;;;5091844;28;20417;-79
2022/07/07 04:18:24;;;;;;;12.52;2.25;;;;;;;;;;5074592;28;20518;-79
2022/07/07 04:20:51;;;;;;;9.35;2.03;;;;;;;;;;5125747;27;20445;-79
2022/07/07 04:23:17;;;;;;;12.55;2.55;;;;;;;;;;5074708;28;20428;-79
2022/07/07 04:25:43;;;;;;;8.32;2.20;;;;;;;;;;5091655;28;20402;-79
2022/07/07 04:28:09;;;;;;;11.68;2.30;;;;;;;;;;5074733;28;20398;-79
2022/07/07 04:30:35;;;;;;;11.40;2.63;;;;;;;;;;5074867;28;20484;-79
2022/07/07 04:33:00;;;;;;;8.50;2.63;;;14.30;99.90;;;;;;5091342;28;20492;-79
2022/07/07 04:35:27;;;;;;;10.50;2.40;;;;;;;;;;5125372;27;20402;-79
2022/07/07 04:37:53;;;;;;;10.77;2.30;;;;;;;;;;5090784;28;20410;-79
2022/07/07 04:40:19;;;;;;;13.23;3.42;;;;;;;;;;5090874;28;20782;-79
2022/07/07 04:42:45;;;;;;;9.57;2.70;;;;;;;;;;5090878;28;20476;-79
2022/07/07 04:45:11;;;;;;;9.82;2.30;;;;;;;;;;5073954;28;20443;-79
2022/07/07 04:47:40;;;;;;;13.07;2.60;;;;;;;;;;5074188;28;20404;-79
2022/07/07 04:50:13;;;;;;;8.68;2.33;;;14.40;99.90;;;;;;5074043;28;20406;-79
2022/07/07 04:52:40;;;;;;;11.02;2.30;;;;;;;;;;5090735;28;20490;-79
2022/07/07 04:55:07;;;;;;;11.32;2.20;;;;;;;;;;5124787;27;20434;-78
2022/07/07 04:57:33;;;;;;;8.38;2.05;;;;;;;;;;5090472;28;20402;-78
2022/07/07 04:59:59;;;;;;;10.60;2.00;;;;;;;;;;5090553;28;20574;-78
2022/07/07 05:02:25;;;;;;;8.35;1.77;;;14.50;99.90;;;;;;5090461;28;20398;-80
2022/07/07 05:04:51;;;;;;;7.95;1.95;;;;;;;;;;5073761;28;20393;-80
2022/07/07 05:07:18;;;;;;;8.53;2.10;;;14.50;99.90;;;;;;5091140;28;20405;-79
2022/07/07 05:09:44;;;;;;;9.03;2.30;;;;;;;;;;5107801;28;20402;-79
2022/07/07 05:12:11;;;;;;;10.18;2.55;;;;;;;;;;5073788;28;20402;-79
2022/07/07 05:14:37;;;;;;;9.10;2.33;;;14.40;99.90;;;;;;5073913;28;21002;-79
2022/07/07 05:17:03;;;;;;;9.10;2.63;;;14.50;99.90;;;;;;5124677;27;20402;-79
2022/07/07 05:19:29;;;;;;;8.63;2.22;;;;;;;;;;5124779;27;20425;-79
2022/07/07 05:21:55;;;;;;;10.70;2.50;;;;;;;;;;5073923;28;20420;-79
2022/07/07 05:24:21;;;;;;;10.30;2.53;;;14.70;99.90;;;;;;5090682;28;20811;-79
2022/07/07 05:26:47;;;;;;;9.93;2.70;;;;;;;;;;5124643;27;20512;-79
2022/07/07 05:29:13;;;;;;;12.40;2.95;;;;;;;;;;5124544;27;20405;-79
2022/07/07 05:31:39;;;;;;;11.85;2.83;;;;;;;;;;5073818;28;20436;-79
2022/07/07 05:34:05;;;;;;;10.95;2.75;;;;;;;;;;5090668;28;20437;-79
2022/07/07 05:36:32;;;;;;;10.13;2.70;;;;;;;;;;5073420;28;20454;-79
2022/07/07 05:38:58;;;;;;;9.38;2.72;;;15.00;99.90;;;;;;5073453;28;20422;-78
2022/07/07 05:41:24;;;;;;;14.07;2.53;;;15.30;99.90;;;;;;5090241;28;20397;-79
2022/07/07 05:43:50;;;;;;;12.63;2.60;;;;;;;;;;5090323;28;20405;-79
2022/07/07 05:46:16;;;;;;;11.27;2.70;;;;;;;;;;5090492;28;20405;-79
2022/07/07 05:48:42;;;;;;;11.48;3.10;;;;;;;;;;5090885;28;20414;-79
2022/07/07 05:51:08;;;;;;;12.45;2.72;;;;;;;;;;5124591;28;20459;-79
2022/07/07 05:53:34;;;;;;;7.97;2.15;;;;;;;;;;5090171;28;20486;-79
2022/07/07 05:56:00;;;;;;;11.15;2.38;;;;;;;;;;5090389;28;20406;-78
2022/07/07 05:58:26;;;;;;;9.52;2.13;;;;;;;;;;5090027;28;20421;-79
2022/07/07 06:00:52;;;;;;;8.77;2.13;;;;;;;;;;5090125;28;20487;-79
2022/07/07 06:03:18;;;;;;;8.73;2.05;;;;;;;;;;5090050;28;20397;-79
2022/07/07 06:05:44;;;;;;;10.17;2.07;;;;;;;;;;5073323;28;20402;-79
2022/07/07 06:08:11;;;;;;;9.80;2.30;;;;;;;;;;5090076;28;20437;-78
2022/07/07 06:10:37;;;;;;;9.45;2.10;;;15.30;99.90;;;;;;5089965;28;20447;-78
2022/07/07 06:13:03;;;;;;;8.05;2.10;;;15.50;99.90;;;;;;5073107;28;20398;-78
2022/07/07 06:15:33;;;;;;;13.80;2.63;;;;;;;;;;5073415;28;20824;-78
2022/07/07 06:18:05;;;;;;;8.37;2.17;;;;;;;;;;5124100;28;20406;-79
2022/07/07 06:20:32;;;;;;;11.77;2.00;;;;;;;;;;5089885;28;20402;-79
2022/07/07 06:22:58;;;;;;;9.43;1.88;;;15.40;99.90;;;;;;5123873;28;20495;-79
2022/07/07 06:25:26;;;;;;;9.95;1.90;;;15.60;99.90;;;;;;5090256;28;20445;-77
2022/07/07 06:27:52;;;;;;;10.73;2.40;;;;;;;;;;5091806;28;20398;-78
2022/07/07 06:30:18;;;;;;;9.50;2.10;;;15.30;99.90;;;;;;5093843;28;20398;-77
2022/07/07 06:32:44;;;;;;;7.28;1.90;;;;;;;;;;5128166;27;20393;-80
2022/07/07 06:35:10;;;;;;;4.85;1.20;;;;;;;;;;5094008;28;20430;-80
2022/07/07 06:37:37;;;;;;;5.78;1.50;;;;;;;;;;5093917;28;20414;-80
2022/07/07 06:40:03;;;;;;;5.30;1.73;;;;;;;;;;5127488;27;20452;-79
2022/07/07 06:42:29;;;;;;;9.00;1.88;;;;;;;;;;5093351;28;20426;-80
2022/07/07 06:44:55;;;;;;;5.70;1.40;;;;;;;;;;5076525;28;20406;-80
2022/07/07 06:47:21;;;;;;;9.07;2.03;;;14.80;99.90;;;;;;5093452;28;20461;-79
2022/07/07 06:49:47;;;;;;;8.87;2.10;;;;;;;;;;5127993;27;20548;-80
2022/07/07 06:52:13;;;;;;;6.72;1.67;;;15.00;99.90;;;;;;5093664;28;20449;-80
2022/07/07 06:54:39;;;;;;;10.70;1.90;;;;;;;;;;5127310;27;20402;-80
2022/07/07 06:57:08;;;;;;;6.77;1.90;;;;;;;;;;5093199;28;20409;-79
2022/07/07 06:59:35;;;;;;;7.47;1.90;;;;;;;;;;5093165;28;20428;-79
2022/07/07 07:02:01;;;;;;;8.35;2.10;;;14.90;99.90;;;;;;5127583;27;20814;-79
2022/07/07 07:04:27;;;;;;;6.68;1.60;;;15.20;99.90;;;;;;5127534;27;20477;-79
2022/07/07 07:06:53;;;;;;;5.28;1.30;;;;;;;;;;5127281;27;20394;-80
2022/07/07 07:09:19;;;;;;;5.47;1.48;;;;;;;;;;5092908;28;20774;-79
2022/07/07 07:11:45;;;;;;;5.18;1.27;;;;;;;;;;5093155;28;20401;-79
2022/07/07 07:14:13;;;;;;;6.00;1.42;;;;;;;;;;5127023;27;20413;-79
2022/07/07 07:16:39;;;;;;;6.40;1.55;;;;;;;;;;5127133;27;20406;-79
2022/07/07 07:19:05;;;;;;;5.22;1.30;;;;;;;;;;5092934;28;20429;-79
2022/07/07 07:21:31;;;;;;;3.75;1.30;;;;;;;;;;5092765;28;20394;-79
2022/07/07 07:23:57;;;;;;;3.47;1.23;;;15.80;99.90;;;;;;5076282;28;20986;-79
2022/07/07 07:26:23;;;;;;;3.85;1.40;;;;;;;;;;5092742;28;20493;-79
2022/07/07 07:28:49;;;;;;;6.15;1.45;;;16.20;99.90;;;;;;5092716;28;20448;-79
2022/07/07 07:31:14;;;;;;;6.13;1.20;;;16.10;99.90;;;;;;5126956;27;20430;-79
2022/07/07 07:33:40;;;;;;;4.60;1.40;;;;;;;;;;5127038;27;20858;-80
2022/07/07 07:36:08;;;;;;;4.43;1.40;;;;;;;;;;5092776;28;20397;-80
2022/07/07 07:38:39;;;;;;;7.32;1.92;;;15.30;99.90;;;;;;5126133;27;20563;-81
2022/07/07 07:41:06;;;;;;;4.80;1.42;;;;;;;;;;5126783;27;20421;-79
2022/07/07 07:43:32;;;;;;;6.43;2.08;;;;;;;;;;5092302;28;20440;-79
2022/07/07 07:45:58;;;;;;;6.88;2.00;;;14.90;99.90;;;;;;5092377;28;20401;-80
2022/07/07 07:48:24;;;;;;;8.93;2.10;;;15.00;99.90;;;;;;5126262;27;20398;-78
2022/07/07 07:50:49;;;;;;;5.82;1.70;;;15.40;99.90;;;;;;5126160;27;20761;-79
2022/07/07 07:53:16;;;;;;;5.57;1.73;;;;;;;;;;5092118;28;20455;-78
2022/07/07 07:55:42;;;;;;;6.80;1.92;;;;;;;;;;5092348;28;20398;-78
2022/07/07 07:58:08;;;;;;;8.88;1.90;;;15.40;99.90;;;;;;5126351;27;20398;-78
2022/07/07 08:00:34;;;;;;;9.05;1.85;;;;;;;;;;5075006;28;20782;-79
2022/07/07 08:03:00;;;;;;;6.47;1.75;;;;;;;;;;5075020;28;20398;-79
2022/07/07 08:05:26;;;;;;;7.25;1.85;;;15.50;99.90;;;;;;5091767;28;20911;-79
2022/07/07 08:07:52;;;;;;;6.10;1.60;;;;;;;;;;5126680;27;20398;-79
2022/07/07 08:10:18;;;;;;;5.13;1.63;;;15.10;99.90;;;;;;5092288;28;20402;-79
2022/07/07 08:12:45;;;;;;;5.03;1.40;;;15.20;99.90;;;;;;5126186;27;20738;-79
2022/07/07 08:15:11;;;;;;;4.53;1.65;;;15.50;99.90;;;;;;5091668;28;20413;-79
2022/07/07 08:17:37;;;;;;;6.63;1.70;;;;;;;;;;5125759;27;20401;-78
2022/07/07 08:20:04;;;;;;;7.75;1.60;;;15.60;99.90;;;;;;5074546;28;20449;-78
2022/07/07 08:22:30;;;;;;;5.37;1.63;;;15.90;99.90;;;;;;5091709;28;20492;-78
2022/07/07 08:24:56;;;;;;;6.90;1.80;;;16.10;99.90;;;;;;5091446;28;20956;-78
2022/07/07 08:27:22;;;;;;;7.87;1.80;;;;;;;;;;5125690;27;20398;-78
2022/07/07 08:29:49;;;;;;;6.30;1.55;;;;;;;;;;5125428;27;20792;-78
2022/07/07 08:32:15;;;;;;;7.30;1.80;;;;;;;;;;5091044;28;20977;-78
2022/07/07 08:34:41;;;;;;;7.55;1.90;;;;;;;;;;5091086;28;20444;-78
2022/07/07 08:37:07;;;;;;;8.50;2.07;;;16.20;99.90;;;;;;5090693;28;20890;-78
2022/07/07 08:39:33;;;;;;;8.40;2.00;;;;;;;;;;5108163;28;20421;-78
2022/07/07 08:42:00;;;;;;;9.18;2.22;;;;;;;;;;5091021;28;20890;-78
2022/07/07 08:44:27;;;;;;;7.37;2.10;;;;;;;;;;5091095;28;20410;-78
2022/07/07 08:46:54;;;;;;;6.22;2.08;;;15.80;99.90;;;;;;5091111;28;20398;-78
2022/07/07 08:49:20;;;;;;;8.10;2.27;;;;;;;;;;5090972;28;20409;-78
2022/07/07 08:51:46;;;;;;;8.95;2.33;;;15.70;99.90;;;;;;5090200;28;20468;-78
2022/07/07 08:54:14;;;;;;;8.93;2.20;;;15.60;99.90;;;;;;5091156;28;20739;-78
2022/07/07 08:56:41;;;;;;;6.93;2.35;;;16.10;99.90;;;;;;5124969;27;20902;-78
2022/07/07 08:59:07;;;;;;;10.82;2.65;;;;;;;;;;5124737;27;20451;-78
2022/07/07 09:01:34;;;;;;;8.20;2.40;;;16.40;99.90;;;;;;5073814;28;20394;-78
2022/07/07 09:04:00;;;;;;;5.85;2.38;;;16.70;99.90;;;;;;5091032;28;20781;-78
2022/07/07 09:06:26;;;;;;;8.57;2.50;;;16.50;99.90;;;;;;5125027;27;20394;-78
2022/07/07 09:08:53;;;;;;;10.20;2.80;;;16.40;99.90;;;;;;5091185;28;20577;-78
2022/07/07 09:11:29;;;;;;;9.52;2.40;;;16.40;99.90;;;;;;5090870;28;20394;-78
2022/07/07 09:14:16;;;;;;;5.72;1.98;;;16.30;99.90;;;;;;5107784;28;20429;-78
2022/07/07 09:16:42;;;;;;;7.35;2.33;;;16.50;99.90;;;;;;5124667;27;20959;-77
2022/07/07 09:19:19;;;;;;;6.60;2.20;;;;;;;;;;5090365;28;20418;-78
2022/07/07 09:21:45;;;;;;;8.45;2.10;;;;;;;;;;5124880;27;20451;-78
2022/07/07 09:24:11;;;;;;;5.60;1.80;;;;;;;;;;5073960;28;20394;-78
2022/07/07 09:26:45;;;;;;;5.97;1.95;;;16.00;99.90;;;;;;5124811;27;20417;-78
2022/07/07 09:29:13;;;;;;;9.05;2.60;;;;;;;;;;5090741;28;20426;-78
2022/07/07 09:31:58;;;;;;;8.27;2.50;;;;;;;;;;5074141;28;20497;-78
2022/07/07 09:34:29;;;;;;;8.60;2.65;;;15.90;99.90;;;;;;5124284;27;20402;-78
2022/07/07 09:39:42;;;;;;;7.78;2.30;;;;;;;;;;5124486;27;20422;-78
2022/07/07 09:42:27;;;;;;;10.20;2.30;;;16.00;99.90;;;;;;5090506;28;20425;-78
2022/07/07 09:45:01;;;;;;;7.15;2.20;;;;;;;;;;5090099;28;20409;-78
2022/07/07 09:47:28;;;;;;;10.50;2.63;;;;;;;;;;5090345;28;20461;-78
2022/07/07 09:50:08;;;;;;;9.88;2.63;;;;;;;;;;5090063;28;20417;-78
2022/07/07 09:52:37;;;;;;;7.47;1.90;;;16.30;99.90;;;;;;5124069;28;20455;-78
2022/07/07 09:55:04;;;;;;;6.35;2.08;;;16.50;99.90;;;;;;5090280;28;20492;-78
2022/07/07 09:57:30;;;;;;;7.70;1.98;;;;;;;;;;5124210;28;20430;-78
2022/07/07 09:59:56;;;;;;;5.72;1.50;;;;;;;;;;5090283;28;20452;-80
2022/07/07 10:02:24;;;;;;;7.47;1.60;;;16.20;99.90;;;;;;5075772;28;20397;-77
2022/07/07 10:04:52;;;;;;;8.27;1.80;;;16.70;99.90;;;;;;5094237;28;20409;-77
2022/07/07 10:07:21;;;;;;;7.43;2.10;;;16.60;99.90;;;;;;5128507;27;20416;-77
2022/07/07 10:09:49;;;;;;;7.75;2.53;;;;;;;;;;5128288;27;20405;-77
2022/07/07 10:12:17;;;;;;;11.63;2.27;;;;;;;;;;5093987;28;20406;-77
2022/07/07 10:14:44;;;;;;;10.38;2.38;;;16.40;99.90;;;;;;5094277;28;20464;-77
2022/07/07 10:17:16;;;;;;;9.30;2.50;;;16.30;99.90;;;;;;5128069;27;20463;-78
2022/07/07 10:19:42;;;;;;;12.27;3.47;;;;;;;;;;5128015;27;21001;-77
2022/07/07 10:22:08;;;;;;;8.05;2.63;;;;;;;;;;5093735;28;20393;-78
2022/07/07 10:24:35;;;;;;;9.43;3.35;;;;;;;;;;5093938;28;20401;-77
2022/07/07 10:27:03;;;;;;;8.03;2.57;;;;;;;;;;5127827;27;20401;-78
2022/07/07 10:29:38;;;;;;;8.85;1.92;;;;;;;;;;5077085;28;20460;-78
2022/07/07 10:32:05;;;;;;;10.80;2.30;;;16.20;99.90;;;;;;5093818;28;20878;-78
2022/07/07 10:34:33;;;;;;;10.52;2.42;;;;;;;;;;5127881;27;20441;-78
2022/07/07 10:37:03;;;;;;;10.35;2.42;;;;;;;;;;5127497;27;20428;-77
2022/07/07 10:39:34;;;;;;;8.85;2.20;;;16.20;99.90;;;;;;5093539;28;20765;-77
2022/07/07 10:42:15;;;;;;;12.50;2.60;;;15.90;99.90;;;;;;5110284;28;20410;-78
2022/07/07 10:44:43;;;;;;;14.37;2.60;;;;;;;;;;5127232;27;20413;-78
2022/07/07 10:47:12;;;;;;;9.65;2.60;;;16.30;99.90;;;;;;5127361;27;20398;-78
2022/07/07 10:49:46;;;;;;;11.68;2.70;;;16.50;99.90;;;;;;5127425;27;20402;-78
2022/07/07 10:52:24;;;;;;;10.13;2.63;;;16.60;99.90;;;;;;5127348;27;20405;-78
2022/07/07 10:54:51;;;;;;;11.07;2.45;;;;;;;;;;5093557;28;20898;-78
2022/07/07 10:57:17;;;;;;;10.30;2.50;;;16.70;99.90;;;;;;5093153;28;20408;-78
2022/07/07 11:00:06;;;;;;;10.80;2.40;;;;;;;;;;5076177;28;20422;-78
2022/07/07 11:02:42;;;;;;;8.93;2.55;;;16.80;99.90;;;;;;5127011;27;20397;-78
2022/07/07 11:05:14;;;;;;;12.38;2.60;;;;;;;;;;5110010;28;20405;-78
2022/07/07 11:07:42;;;;;;;16.63;3.00;;;;;;;;;;5076318;28;20394;-78
2022/07/07 11:10:13;;;;;;;15.48;3.00;;;16.60;99.90;;;;;;5093250;28;20420;-78
2022/07/07 11:12:47;;;;;;;16.17;2.97;;;16.70;99.90;;;;;;5092969;28;20398;-78
2022/07/07 11:15:23;;;;;;;12.10;2.90;;;;;;;;;;5092606;28;20410;-78
2022/07/07 11:17:52;;;;;;;12.45;3.55;;;16.70;99.90;;;;;;5075944;28;20422;-78
2022/07/07 11:20:20;;;;;;;17.35;3.30;;;16.80;99.90;;;;;;5126798;27;20426;-77
2022/07/07 11:22:48;;;;;;;19.67;3.70;;;16.80;99.90;;;;;;5109994;28;20394;-78
2022/07/07 11:25:16;;;;;;;15.10;3.67;;;;;;;;;;5075981;28;20394;-78
2022/07/07 11:27:42;;;;;;;15.30;3.40;;;16.80;99.90;;;;;;5075734;28;20916;-78
2022/07/07 11:30:08;;;;;;;15.38;3.15;;;;;;;;;;5126653;27;20886;-78
2022/07/07 11:32:43;;;;;;;10.07;2.50;;;16.90;99.90;;;;;;5092486;28;20402;-78
2022/07/07 11:35:12;;;;;;;15.52;2.60;;;16.70;99.90;;;;;;5126797;27;20398;-78
2022/07/07 11:37:41;;;;;;;13.05;2.83;;;17.20;99.90;;;;;;5075402;28;20432;-78
2022/07/07 11:40:12;;;;;;;12.02;2.78;;;;;;;;;;5109374;28;20425;-78
2022/07/07 11:42:39;;;;;;;10.82;2.70;;;17.50;99.90;;;;;;5075697;28;20463;-78
2022/07/07 11:45:05;;;;;;;15.30;3.20;;;;;;;;;;5092514;28;20830;-78
2022/07/07 11:47:35;;;;;;;10.73;2.77;;;17.50;99.90;;;;;;5092687;28;20424;-78
2022/07/07 11:50:01;;;;;;;9.68;2.38;;;;;;;;;;5075165;28;20488;-78
2022/07/07 11:52:27;;;;;;;12.73;2.63;;;;;;;;;;5092360;28;20405;-78
2022/07/07 11:54:53;;;;;;;14.05;3.28;;;17.70;99.90;;;;;;5092100;28;20409;-78
2022/07/07 11:57:29;;;;;;;13.47;2.40;;;17.60;99.90;;;;;;5093492;28;20398;-78
2022/07/07 12:00:14;;;;;;;12.63;2.50;;;17.60;99.90;;;;;;5108891;28;20452;-77
2022/07/07 12:02:41;;;;;;;13.63;3.05;;;17.80;99.90;;;;;;5125985;27;20466;-77
2022/07/07 12:05:08;;;;;;;16.08;3.45;;;;;;;;;;5092038;28;20401;-78
2022/07/07 12:07:34;;;;;;;13.57;2.83;;;;;;;;;;5075109;28;20483;-78
2022/07/07 12:10:00;;;;;;;11.50;2.78;;;17.80;99.90;;;;;;5091955;28;20402;-78
2022/07/07 12:12:26;;;;;;;11.43;3.03;;;;;;;;;;5109031;28;20459;-78
2022/07/07 12:14:52;;;;;;;11.15;2.88;;;;;;;;;;5092862;28;20907;-78
2022/07/07 12:17:39;;;;;;;10.52;2.70;;;17.20;99.90;;;;;;5074550;28;20402;-79
2022/07/07 12:20:06;;;;;;;13.57;3.42;;;;;;;;;;5125804;27;20792;-78
2022/07/07 12:22:36;;;;;;;12.25;3.17;;;;;;;;;;5091406;28;20485;-79
2022/07/07 12:25:07;;;;;;;14.05;3.00;;;17.00;99.90;;;;;;5090581;28;20398;-79
2022/07/07 12:27:33;;;;;;;15.40;3.47;;;;;;;;;;5091260;28;20397;-79
2022/07/07 12:30:05;;;;;;;14.02;3.10;;;16.90;99.90;;;;;;5074516;28;20398;-79
2022/07/07 12:32:31;;;;;;;11.43;3.30;;;;;;;;;;5091277;28;20409;-79
2022/07/07 12:34:57;;;;;;;13.30;3.60;;;;;;;;;;5091361;28;20404;-79
2022/07/07 12:37:45;;;;;;;14.82;4.00;;;;;;;;;;5092300;28;20437;-79
2022/07/07 12:40:14;;;;;;;17.63;3.45;;;16.70;99.90;;;;;;5091053;28;20425;-79
2022/07/07 12:42:44;;;;;;;14.60;3.45;;;16.80;99.90;;;;;;5124857;27;20405;-79
2022/07/07 12:45:13;;;;;;;15.98;3.67;;;17.10;99.90;;;;;;5108337;28;20406;-79
2022/07/07 12:47:51;;;;;;;14.88;3.97;;;17.40;99.90;;;;;;5091919;28;20398;-79
2022/07/07 12:50:18;;;;;;;13.43;3.67;;;;;;;;;;5108131;28;20409;-79
2022/07/07 12:53:00;;;;;;;12.48;2.70;;;;;;;;;;5074355;28;20413;-79
2022/07/07 12:55:42;;;;;;;10.13;2.90;;;17.60;99.90;;;;;;5074095;28;20518;-79
2022/07/07 12:58:14;;;;;;;8.50;2.65;;;;;;;;;;5125209;27;20405;-79
2022/07/07 13:00:44;;;;;;;9.60;2.60;;;17.40;99.90;;;;;;5090851;28;20433;-79
2022/07/07 13:03:09;;;;;;;12.52;2.85;;;17.60;99.90;;;;;;5108186;28;20409;-79
2022/07/07 13:05:35;;;;;;;9.98;2.42;;;;;;;;;;5125077;27;20886;-79
2022/07/07 13:08:01;;;;;;;12.90;3.05;;;;;;;;;;5090811;28;20486;-80
2022/07/07 13:10:27;;;;;;;13.35;3.03;;;17.30;99.90;;;;;;5090899;28;20437;-79
2022/07/07 13:12:54;;;;;;;10.80;2.60;;;17.50;99.90;;;;;;5107738;28;20402;-80
2022/07/07 13:15:20;;;;;;;13.60;3.07;;;;;;;;;;5074057;28;20414;-79
2022/07/07 13:17:46;;;;;;;10.52;2.90;;;;;;;;;;5090444;28;20402;-79
2022/07/07 13:20:13;;;;;;;13.53;3.63;;;17.30;99.90;;;;;;5073846;28;20497;-79
2022/07/07 13:22:42;;;;;;;12.02;3.30;;;;;;;;;;5090703;28;20432;-79
2022/07/07 13:25:09;;;;;;;13.83;3.13;;;;;;;;;;5124616;27;20409;-80
2022/07/07 13:27:35;;;;;;;10.65;2.72;;;;;;;;;;5073675;28;20398;-79
2022/07/07 13:30:01;;;;;;;11.27;2.85;;;;;;;;;;5090729;28;20393;-79
2022/07/07 13:32:27;;;;;;;9.65;2.70;;;16.80;99.90;;;;;;5090639;28;20452;-79
2022/07/07 13:34:53;;;;;;;10.32;2.70;;;16.90;99.90;;;;;;5073763;28;20441;-78
2022/07/07 13:37:19;;;;;;;10.68;2.90;;;17.20;99.90;;;;;;5107079;28;20434;-78
2022/07/07 13:39:44;;;;;;;11.90;2.85;;;16.70;99.90;;;;;;5124553;27;20504;-79
2022/07/07 13:42:11;;;;;;;9.30;2.90;;;;;;;;;;5124703;27;20950;-79
2022/07/07 13:44:38;;;;;;;11.25;2.63;;;16.90;99.90;;;;;;5090638;28;20458;-78
2022/07/07 13:47:04;;;;;;;13.45;2.35;;;;;;;;;;5124382;28;20889;-79
2022/07/07 13:49:30;;;;;;;13.57;2.80;;;17.10;99.90;;;;;;5090166;28;20410;-78
2022/07/07 13:51:58;;;;;;;10.23;2.33;;;;;;;;;;5124989;28;20413;-79
2022/07/07 13:54:27;;;;;;;13.45;2.70;;;16.80;99.90;;;;;;5073533;28;20796;-79